Time;durP1;ratioP1;P1;durP2;ratioP2;P2;SDS_P1;SDS_P2;PMS_P1;PMS_P2;Temp;Humidity;BMP_temperature;BMP_pressure;BME280_temperature;BME280_humidity;BME280_pressure;Samples;Min_cycle;Max_cycle;Signal;HPM_P1;HPM_P2
2022/06/07 00:00:38;;;;;;;4.90;3.80;;;;;;;16.61;79.31;96615.23;107512;1270;112375;-75
2022/06/07 00:03:09;;;;;;;4.80;3.80;;;;;;;16.61;79.54;96614.48;107385;1270;104774;-74
2022/06/07 00:05:44;;;;;;;5.70;4.10;;;;;;;16.58;79.69;96615.06;107520;1270;77428;-74
2022/06/07 00:08:18;;;;;;;6.00;3.90;;;;;;;16.54;79.88;96616.14;107416;1270;107187;-74
2022/06/07 00:10:50;;;;;;;4.00;3.60;;;;;;;16.50;79.84;96620.23;107603;1270;37544;-75
2022/06/07 00:13:21;;;;;;;5.80;4.10;;;;;;;16.53;79.78;96617.40;107294;1270;128863;-75
2022/06/07 00:15:52;;;;;;;5.60;4.60;;;;;;;16.54;79.46;96614.59;107463;1270;40889;-75
2022/06/07 00:18:24;;;;;;;4.90;3.70;;;;;;;16.47;79.45;96616.95;107422;1270;33564;-75
2022/06/07 00:20:55;;;;;;;5.80;4.20;;;;;;;16.27;79.81;96614.15;107386;1269;76073;-74
2022/06/07 00:23:26;;;;;;;4.80;3.40;;;;;;;16.12;80.35;96612.00;107539;1270;36463;-74
2022/06/07 00:25:58;;;;;;;5.40;4.00;;;;;;;16.06;81.18;96613.99;107305;1270;84177;-74
2022/06/07 00:28:30;;;;;;;4.30;3.90;;;;;;;16.05;81.74;96609.79;107457;1270;40764;-74
2022/06/07 00:31:01;;;;;;;5.50;4.10;;;;;;;16.01;81.87;96608.84;107392;1270;68918;-74
2022/06/07 00:33:33;;;;;;;4.40;3.60;;;;;;;15.98;82.27;96605.77;107381;1270;70713;-74
2022/06/07 00:36:04;;;;;;;4.80;3.60;;;;;;;15.96;82.59;96608.94;107344;1270;81001;-74
2022/06/07 00:38:35;;;;;;;4.10;3.70;;;;;;;15.92;82.94;96609.31;107341;1270;70996;-74
2022/06/07 00:41:06;;;;;;;4.40;3.30;;;;;;;15.87;83.04;96608.44;107298;1270;132449;-74
2022/06/07 00:43:38;;;;;;;3.60;3.20;;;;;;;15.80;82.97;96604.81;107265;1270;107415;-74
2022/06/07 00:46:14;;;;;;;5.30;3.80;;;;;;;15.69;82.88;96603.65;107255;1270;98900;-74
2022/06/07 00:48:46;;;;;;;5.30;3.80;;;;;;;15.60;82.92;96605.83;107550;1270;61865;-74
2022/06/07 00:51:17;;;;;;;4.50;3.80;;;;;;;15.61;84.20;96604.05;107466;1270;62327;-74
2022/06/07 00:53:48;;;;;;;5.20;3.70;;;;;;;15.66;84.51;96604.59;107501;1270;84179;-74
2022/06/07 00:56:21;;;;;;;4.50;3.70;;;;;;;15.72;84.07;96605.38;107082;1271;1551406;-75
2022/06/07 00:58:52;;;;;;;4.50;3.40;;;;;;;15.77;83.82;96605.05;107164;1270;108252;-74
2022/06/07 01:01:23;;;;;;;4.30;3.50;;;;;;;15.83;83.36;96601.29;107445;1270;34072;-75
2022/06/07 01:03:54;;;;;;;5.10;4.50;;;;;;;15.84;83.23;96600.29;107233;1270;97076;-75
2022/06/07 01:12:03;;;;;;;4.80;3.80;;;;;;;16.02;82.82;96596.86;107449;1270;51491;-75
2022/06/07 01:14:35;;;;;;;5.60;4.30;;;;;;;15.77;82.69;96599.80;106849;1271;134310;-75
2022/06/07 01:17:07;;;;;;;4.60;3.60;;;;;;;15.57;83.85;96593.83;107405;1270;33634;-75
2022/06/07 01:19:38;;;;;;;5.40;4.50;;;;;;;15.45;84.61;96593.55;107268;1270;97171;-75
2022/06/07 01:22:09;;;;;;;7.90;5.70;;;;;;;15.40;85.34;96591.88;107428;1270;35118;-75
2022/06/07 01:24:40;;;;;;;6.50;5.70;;;;;;;15.45;85.93;96591.41;107219;1270;145833;-75
2022/06/07 01:27:12;;;;;;;7.80;5.20;;;;;;;15.50;86.03;96590.81;107428;1270;97951;-75
2022/06/07 01:29:43;;;;;;;5.90;4.80;;;;;;;15.56;86.39;96590.23;107148;1270;108923;-75
2022/06/07 01:32:15;;;;;;;5.40;4.50;;;;;;;15.59;86.60;96590.88;107411;1270;118414;-75
2022/06/07 01:34:48;;;;;;;5.40;4.30;;;;;;;15.58;86.62;96589.51;107278;1270;79116;-75
2022/06/07 01:37:21;;;;;;;5.80;4.50;;;;;;;15.55;86.88;96590.82;107513;1270;35548;-76
2022/06/07 01:42:41;;;;;;;5.20;4.10;;;;;;;15.48;86.40;96584.63;107541;1270;33876;-75
2022/06/07 01:45:12;;;;;;;5.90;4.70;;;;;;;15.52;86.60;96584.78;107346;1270;105775;-75
2022/06/07 01:47:44;;;;;;;8.70;6.00;;;;;;;15.59;87.05;96585.76;107496;1270;72461;-75
2022/06/07 01:50:17;;;;;;;8.60;6.60;;;;;;;15.69;87.82;96581.11;107409;1270;96447;-75
2022/06/07 01:52:48;;;;;;;9.70;6.60;;;;;;;15.81;88.07;96581.80;107613;1270;32033;-75
2022/06/07 01:55:22;;;;;;;8.70;7.20;;;;;;;15.88;88.03;96577.24;107429;1270;83561;-75
2022/06/07 01:57:54;;;;;;;9.40;7.00;;;;;;;15.96;88.02;96574.59;107525;1270;45259;-76
2022/06/07 02:00:25;;;;;;;8.60;7.40;;;;;;;16.01;87.62;96575.78;107548;1270;36298;-76
2022/06/07 02:02:56;;;;;;;9.30;7.50;;;;;;;16.05;87.59;96572.98;105933;1270;2063252;-76
2022/06/07 02:05:28;;;;;;;9.00;6.60;;;;;;;16.09;87.33;96569.63;107460;1270;32972;-75
2022/06/07 02:07:59;;;;;;;8.40;7.20;;;;;;;16.11;87.09;96572.70;107410;1270;85520;-75
2022/06/07 02:10:30;;;;;;;9.50;7.80;;;;;;;16.13;86.96;96571.64;107541;1270;35948;-75
2022/06/07 02:13:02;;;;;;;7.40;6.00;;;;;;;16.16;86.74;96568.26;107332;1270;90430;-75
2022/06/07 02:15:33;;;;;;;6.40;5.00;;;;;;;16.17;86.20;96567.47;107440;1270;32075;-75
2022/06/07 02:18:05;;;;;;;6.90;5.70;;;;;;;16.18;85.67;96570.17;107200;1270;105146;-75
2022/06/07 02:20:37;;;;;;;8.50;7.10;;;;;;;16.21;85.39;96570.10;107421;1270;49743;-75
2022/06/07 02:23:09;;;;;;;7.30;6.50;;;;;;;16.22;85.12;96568.69;107207;1270;153104;-75
2022/06/07 02:25:45;;;;;;;9.40;8.10;;;;;;;16.20;84.97;96567.73;107401;1270;36332;-76
2022/06/07 02:28:28;;;;;;;10.80;7.10;;;;;;;16.21;85.08;96564.91;107268;1270;134461;-76
2022/06/07 02:31:00;;;;;;;10.80;7.40;;;;;;;16.20;85.09;96564.35;107488;1270;35375;-75
2022/06/07 02:33:32;;;;;;;9.30;7.90;;;;;;;16.17;84.96;96559.69;107293;1270;96771;-75
2022/06/07 02:36:05;;;;;;;11.10;8.30;;;;;;;15.99;85.14;96555.05;107456;1270;30685;-75
2022/06/07 02:38:37;;;;;;;8.80;7.20;;;;;;;15.91;86.27;96554.64;107354;1270;114662;-76
2022/06/07 02:41:11;;;;;;;9.40;7.30;;;;;;;15.90;86.45;96553.98;107494;1270;61869;-76
2022/06/07 02:43:42;;;;;;;9.80;7.10;;;;;;;15.91;86.81;96555.45;107272;1270;125204;-75
2022/06/07 02:46:14;;;;;;;9.20;7.70;;;;;;;15.89;86.85;96555.91;107121;1270;174603;-75
2022/06/07 02:48:45;;;;;;;7.60;6.80;;;;;;;15.91;87.11;96557.13;107442;1273;40308;-75
2022/06/07 02:51:17;;;;;;;8.50;6.80;;;;;;;15.88;86.98;96556.64;107408;1270;119703;-75
2022/06/07 02:53:48;;;;;;;10.30;7.10;;;;;;;15.87;86.92;96556.48;107553;1270;34081;-75
2022/06/07 02:56:19;;;;;;;9.60;7.20;;;;;;;15.87;87.03;96556.58;107088;1270;135881;-75
2022/06/07 02:58:50;;;;;;;10.40;8.20;;;;;;;15.88;87.21;96561.80;107439;1270;35612;-75
2022/06/07 03:01:22;;;;;;;8.20;7.00;;;;;;;15.89;87.35;96559.56;107206;1270;121551;-75
2022/06/07 03:03:53;;;;;;;9.90;7.30;;;;;;;15.91;87.65;96560.90;107518;1270;33652;-75
2022/06/07 03:06:24;;;;;;;9.90;7.80;;;;;;;15.92;87.43;96561.41;107029;1270;121992;-75
2022/06/07 03:08:55;;;;;;;8.20;7.40;;;;;;;15.93;87.52;96562.23;107516;1270;55304;-75
2022/06/07 03:11:27;;;;;;;8.60;7.70;;;;;;;15.96;87.66;96556.98;107131;1270;115645;-75
2022/06/07 03:13:58;;;;;;;8.20;7.40;;;;;;;16.01;87.63;96561.02;107509;1270;37051;-75
2022/06/07 03:16:31;;;;;;;9.10;7.00;;;;;;;16.06;87.47;96559.81;107248;1270;100224;-75
2022/06/07 03:19:03;;;;;;;9.10;7.20;;;;;;;16.12;87.33;96563.36;107547;1270;34368;-75
2022/06/07 03:21:34;;;;;;;7.90;7.00;;;;;;;16.18;87.18;96564.24;107290;1270;116686;-75
2022/06/07 03:24:06;;;;;;;8.90;8.00;;;;;;;16.27;86.95;96564.55;107466;1270;104585;-75
2022/06/07 03:26:38;;;;;;;11.30;8.30;;;;;;;16.39;86.66;96564.08;107355;1270;87374;-75
2022/06/07 03:29:10;;;;;;;9.70;8.00;;;;;;;16.48;86.41;96560.98;107550;1270;34796;-75
2022/06/07 03:31:41;;;;;;;9.90;8.50;;;;;;;16.56;85.98;96559.08;107366;1270;124398;-75
2022/06/07 03:34:13;;;;;;;8.50;7.20;;;;;;;16.62;85.72;96563.60;107544;1270;33667;-75
2022/06/07 03:36:44;;;;;;;8.80;7.90;;;;;;;16.68;85.67;96563.11;107360;1270;97939;-75
2022/06/07 03:39:15;;;;;;;8.70;7.40;;;;;;;16.73;85.56;96559.10;107417;1270;67017;-75
2022/06/07 03:41:46;;;;;;;10.60;8.20;;;;;;;16.81;85.51;96560.70;107617;1270;35562;-75
2022/06/07 03:44:17;;;;;;;9.30;6.80;;;;;;;16.90;85.32;96561.40;107433;1270;76571;-75
2022/06/07 03:46:49;;;;;;;9.20;7.50;;;;;;;17.01;85.10;96559.32;107516;1270;36149;-74
2022/06/07 03:49:20;;;;;;;9.10;8.00;;;;;;;17.09;85.03;96559.73;107468;1270;56461;-76
2022/06/07 03:51:52;;;;;;;8.10;7.30;;;;;;;17.21;84.99;96561.42;107426;1270;34774;-75
2022/06/07 03:54:23;;;;;;;8.40;7.20;;;;;;;17.33;84.78;96554.84;107397;1270;103488;-75
2022/06/07 03:56:54;;;;;;;9.20;8.30;;;;;;;17.45;84.72;96555.20;107319;1270;89497;-75
2022/06/07 03:59:27;;;;;;;9.00;8.10;;;;;;;17.57;84.51;96550.86;107206;1270;121606;-75
2022/06/07 04:02:00;;;;;;;8.60;7.70;;;;;;;17.66;84.34;96550.16;107451;1270;87881;-75
2022/06/07 04:04:31;;;;;;;9.70;7.10;;;;;;;17.74;84.02;96549.73;107367;1270;60901;-75
2022/06/07 04:09:51;;;;;;;9.00;8.10;;;;;;;17.87;83.43;96540.88;107339;1270;65908;-76
2022/06/07 04:12:22;;;;;;;9.70;8.70;;;;;;;17.93;83.14;96536.89;107330;1270;39468;-75
2022/06/07 04:14:53;;;;;;;8.30;7.30;;;;;;;18.00;82.99;96534.84;107448;1270;40554;-75
2022/06/07 04:17:25;;;;;;;8.50;7.50;;;;;;;18.11;82.78;96533.33;107399;1270;57513;-75
2022/06/07 04:19:56;;;;;;;8.70;7.90;;;;;;;18.22;82.25;96533.11;107497;1270;49041;-75
2022/06/07 04:22:27;;;;;;;9.20;8.20;;;;;;;18.31;81.97;96528.46;107252;1270;103935;-75
2022/06/07 04:24:58;;;;;;;11.70;9.20;;;;;;;18.47;82.03;96525.02;107352;1270;62556;-75
2022/06/07 04:27:30;;;;;;;10.10;8.70;;;;;;;18.64;81.54;96524.09;107300;1270;92698;-75
2022/06/07 04:30:01;;;;;;;8.80;7.30;;;;;;;18.80;81.09;96521.55;107426;1270;45293;-75
2022/06/07 04:32:33;;;;;;;9.20;7.70;;;;;;;18.89;80.39;96519.76;107313;1271;42970;-75
2022/06/07 04:35:05;;;;;;;8.20;7.20;;;;;;;18.91;79.74;96518.94;107517;1270;66675;-75
2022/06/07 04:37:37;;;;;;;10.00;8.10;;;;;;;18.76;79.14;96518.44;107586;1270;35476;-75
2022/06/07 04:40:11;;;;;;;9.40;8.00;;;;;;;18.61;79.40;96516.91;107482;1270;54665;-75
2022/06/07 04:42:43;;;;;;;8.30;7.20;;;;;;;18.71;80.03;96515.43;107546;1270;32421;-75
2022/06/07 04:45:16;;;;;;;8.50;7.40;;;;;;;18.99;80.03;96511.00;107365;1270;90302;-75
2022/06/07 04:47:49;;;;;;;8.00;7.20;;;;;;;19.28;79.61;96515.77;107561;1270;69920;-75
2022/06/07 04:50:21;;;;;;;8.00;6.70;;;;;;;19.51;78.99;96521.80;107342;1270;106574;-76
2022/06/07 04:52:53;;;;;;;7.90;6.80;;;;;;;19.80;78.88;96520.60;107515;1270;36857;-75
2022/06/07 04:55:25;;;;;;;8.70;7.10;;;;;;;20.05;77.88;96520.55;107473;1270;65465;-75
2022/06/07 04:57:56;;;;;;;7.20;6.30;;;;;;;20.10;76.87;96520.48;107492;1270;44217;-75
2022/06/07 05:00:28;;;;;;;6.90;6.10;;;;;;;20.19;76.10;96519.78;107390;1270;75602;-75
2022/06/07 05:02:59;;;;;;;7.00;6.30;;;;;;;20.37;75.78;96526.92;107537;1270;37891;-76
2022/06/07 05:05:31;;;;;;;8.60;6.30;;;;;;;20.62;75.66;96529.67;107462;1270;81852;-75
2022/06/07 05:08:02;;;;;;;9.30;6.50;;;;;;;20.88;74.43;96526.05;107522;1270;78491;-75
2022/06/07 05:10:33;;;;;;;7.70;6.60;;;;;;;21.02;73.57;96523.48;107434;1270;100101;-75
2022/06/07 05:13:05;;;;;;;8.20;7.20;;;;;;;21.14;72.71;96526.71;107515;1270;34034;-75
2022/06/07 05:15:36;;;;;;;6.90;6.30;;;;;;;21.36;72.36;96522.08;107465;1270;67486;-75
2022/06/07 05:18:09;;;;;;;6.50;5.90;;;;;;;21.85;72.35;96526.89;107566;1270;38817;-75
2022/06/07 05:20:41;;;;;;;6.90;6.20;;;;;;;22.91;71.57;96524.35;107427;1270;67063;-76
2022/06/07 05:23:12;;;;;;;6.60;5.90;;;;;;;24.74;71.52;96524.09;107519;1270;38756;-76
2022/06/07 05:25:52;;;;;;;6.40;5.80;;;;;;;27.19;68.11;96523.25;107242;1270;74861;-76
2022/06/07 05:28:24;;;;;;;7.10;5.90;;;;;;;29.07;62.49;96529.73;107450;1270;72842;-76
2022/06/07 05:30:56;;;;;;;6.50;5.30;;;;;;;30.51;57.65;96531.84;107393;1270;76206;-77
2022/06/07 05:33:27;;;;;;;7.00;5.10;;;;;;;31.68;54.31;96535.81;107521;1270;50980;-76
2022/06/07 05:35:59;;;;;;;6.00;4.10;;;;;;;32.87;51.25;96544.75;107526;1270;35211;-76
2022/06/07 05:38:30;;;;;;;4.40;4.00;;;;;;;33.83;48.71;96548.15;107362;1270;90988;-76
2022/06/07 05:41:01;;;;;;;5.70;3.70;;;;;;;34.57;45.96;96548.27;107504;1270;35310;-76
2022/06/07 05:43:33;;;;;;;4.40;3.50;;;;;;;33.59;43.03;96548.23;107338;1270;82589;-77
2022/06/07 05:46:04;;;;;;;3.20;3.00;;;;;;;31.94;42.97;96545.61;107393;1270;34077;-76
2022/06/07 05:48:35;;;;;;;3.80;3.10;;;;;;;30.78;43.00;96549.66;107423;1270;75998;-76
2022/06/07 05:51:06;;;;;;;4.70;3.50;;;;;;;31.36;42.92;96550.36;107376;1270;65791;-77
2022/06/07 05:53:38;;;;;;;4.70;3.40;;;;;;;32.24;42.93;96552.07;107538;1270;50268;-76
2022/06/07 05:56:12;;;;;;;3.40;2.90;;;;;;;32.29;40.41;96549.78;107315;1270;82653;-76
2022/06/07 05:58:44;;;;;;;3.40;3.10;;;;;;;32.15;40.78;96548.70;107541;1270;39505;-76
2022/06/07 06:01:15;;;;;;;3.90;3.10;;;;;;;32.45;39.59;96550.17;107519;1270;80213;-76
2022/06/07 06:03:46;;;;;;;2.90;2.40;;;;;;;31.79;38.76;96553.13;107460;1270;32727;-77
2022/06/07 06:06:18;;;;;;;10.80;3.50;;;;;;;31.49;38.51;96556.83;107388;1270;78006;-76
2022/06/07 06:11:35;;;;;;;5.00;3.10;;;;;;;32.67;37.25;96550.11;107247;1270;70063;-77
2022/06/07 06:14:06;;;;;;;3.20;2.60;;;;;;;32.44;35.58;96550.66;107477;1270;41913;-76
2022/06/07 06:16:38;;;;;;;6.20;3.00;;;;;;;30.96;36.11;96552.49;107302;1271;106689;-76
2022/06/07 06:19:09;;;;;;;5.20;2.80;;;;;;;29.88;38.05;96560.58;107388;1270;90851;-76
2022/06/07 06:21:43;;;;;;;4.10;2.40;;;;;;;29.00;39.22;96556.17;107365;1271;79247;-77
2022/06/07 06:24:15;;;;;;;4.30;2.70;;;;;;;28.18;39.91;96550.05;107497;1270;32990;-75
2022/06/07 06:26:47;;;;;;;3.30;3.10;;;;;;;27.59;41.48;96548.21;107677;1270;77736;-76
2022/06/07 06:29:18;;;;;;;4.40;2.60;;;;;;;28.68;41.51;96550.55;107580;1270;32745;-76
2022/06/07 06:31:51;;;;;;;4.10;2.90;;;;;;;29.79;40.09;96551.52;107634;1270;30335;-76
2022/06/07 06:34:23;;;;;;;3.00;2.70;;;;;;;31.04;39.60;96549.89;107632;1270;36319;-77
2022/06/07 06:36:55;;;;;;;3.00;2.40;;;;;;;32.52;37.29;96547.27;107530;1270;45199;-77
2022/06/07 06:39:26;;;;;;;7.00;2.70;;;;;;;33.22;35.03;96545.39;107505;1270;61061;-77
2022/06/07 06:41:58;;;;;;;3.30;2.70;;;;;;;32.02;35.45;96541.96;107495;1270;31493;-76
2022/06/07 06:44:29;;;;;;;5.70;2.70;;;;;;;31.62;37.16;96538.50;107296;1270;69997;-77
2022/06/07 06:47:02;;;;;;;4.90;2.60;;;;;;;31.46;36.91;96537.61;107474;1270;75552;-76
2022/06/07 06:49:33;;;;;;;3.20;2.70;;;;;;;30.49;37.37;96537.81;107409;1270;58076;-76
2022/06/07 06:52:04;;;;;;;2.90;2.60;;;;;;;30.83;38.60;96538.06;107543;1270;33934;-76
2022/06/07 06:54:35;;;;;;;2.50;2.30;;;;;;;31.91;38.03;96539.13;107349;1271;52092;-76
2022/06/07 06:57:07;;;;;;;2.60;2.40;;;;;;;32.42;37.81;96537.45;107441;1270;56603;-76
2022/06/07 06:59:38;;;;;;;2.60;2.40;;;;;;;32.86;36.63;96535.60;107385;1270;71513;-76
2022/06/07 07:02:11;;;;;;;2.70;2.40;;;;;;;31.84;35.90;96535.80;107527;1270;95368;-76
2022/06/07 07:04:42;;;;;;;2.90;2.50;;;;;;;30.85;36.44;96533.36;107395;1270;119967;-76
2022/06/07 07:07:13;;;;;;;3.80;2.60;;;;;;;30.58;37.14;96530.52;107447;1270;35609;-76
2022/06/07 07:09:47;;;;;;;2.90;2.40;;;;;;;30.66;37.15;96525.10;107418;1270;46644;-76
2022/06/07 07:12:18;;;;;;;2.80;2.60;;;;;;;30.44;37.81;96523.81;107609;1271;41879;-76
2022/06/07 07:14:49;;;;;;;3.00;2.20;;;;;;;31.73;38.43;96523.66;107448;1270;88457;-76
2022/06/07 07:17:21;;;;;;;3.00;2.20;;;;;;;34.28;34.81;96526.63;107431;1271;34116;-77
2022/06/07 07:19:54;;;;;;;2.70;2.20;;;;;;;33.91;32.01;96522.00;107408;1270;59498;-76
2022/06/07 07:22:25;;;;;;;2.30;2.10;;;;;;;34.48;32.61;96522.17;107511;1270;35622;-77
2022/06/07 07:24:57;;;;;;;2.30;2.10;;;;;;;36.36;32.78;96519.66;107499;1270;59843;-77
2022/06/07 07:27:30;;;;;;;2.20;1.80;;;;;;;38.33;31.36;96523.67;107442;1270;39607;-77
2022/06/07 07:30:09;;;;;;;1.70;1.60;;;;;;;40.38;29.98;96516.33;107484;1270;36342;-77
2022/06/07 07:32:42;;;;;;;1.60;1.50;;;;;;;41.80;27.68;96515.73;107543;1270;43446;-76
2022/06/07 07:35:14;;;;;;;1.60;1.50;;;;;;;42.93;26.29;96516.33;107504;1270;54986;-75
2022/06/07 07:37:45;;;;;;;1.50;1.40;;;;;;;43.28;25.46;96507.55;107622;1270;34375;-75
2022/06/07 07:40:17;;;;;;;1.50;1.40;;;;;;;44.31;24.73;96504.95;107548;1271;53396;-75
2022/06/07 07:42:48;;;;;;;1.10;1.10;;;;;;;43.36;22.14;96502.97;107630;1271;31781;-76
2022/06/07 07:45:20;;;;;;;1.80;1.70;;;;;;;40.67;23.19;96502.82;107556;1270;53797;-77
2022/06/07 07:47:51;;;;;;;1.60;1.50;;;;;;;38.56;24.44;96502.48;107522;1271;35511;-77
2022/06/07 07:50:22;;;;;;;3.00;1.60;;;;;;;37.26;25.82;96495.19;107575;1270;48773;-77
2022/06/07 07:52:54;;;;;;;1.90;1.70;;;;;;;37.23;27.45;96498.94;107475;1270;42804;-77
2022/06/07 07:55:25;;;;;;;3.60;1.90;;;;;;;37.49;26.25;96495.67;107488;1271;71986;-77
2022/06/07 07:57:57;;;;;;;2.20;1.80;;;;;;;36.85;27.26;96494.20;107592;1271;31896;-77
2022/06/07 08:00:31;;;;;;;1.60;1.50;;;;;;;38.46;27.72;96493.00;107473;1271;52843;-77
2022/06/07 08:03:02;;;;;;;2.20;1.60;;;;;;;39.07;24.58;96492.49;107549;1270;41062;-77
2022/06/07 08:05:34;;;;;;;2.30;2.00;;;;;;;38.18;24.50;96496.40;107524;1271;35255;-78
2022/06/07 08:08:06;;;;;;;1.70;1.60;;;;;;;37.70;25.45;96496.58;107472;1271;49803;-78
2022/06/07 08:10:38;;;;;;;1.70;1.60;;;;;;;37.71;25.89;96493.67;107680;1271;34478;-75
2022/06/07 08:13:10;;;;;;;3.00;1.80;;;;;;;38.24;25.43;96492.24;107616;1271;47585;-76
2022/06/07 08:15:41;;;;;;;2.00;1.80;;;;;;;38.13;25.25;96492.02;107566;1271;34586;-76
2022/06/07 08:18:12;;;;;;;2.50;1.90;;;;;;;37.67;25.37;96486.52;107615;1271;51034;-76
2022/06/07 08:20:43;;;;;;;2.00;1.90;;;;;;;36.41;26.23;96484.16;107701;1271;39531;-76
2022/06/07 08:23:15;;;;;;;3.10;1.80;;;;;;;35.80;27.29;96485.25;107649;1271;47784;-76
2022/06/07 08:25:46;;;;;;;3.00;2.10;;;;;;;36.96;27.48;96485.77;107663;1270;33968;-76
2022/06/07 08:28:17;;;;;;;1.90;1.80;;;;;;;38.00;26.66;96488.75;107579;1271;48268;-76
2022/06/07 08:30:49;;;;;;;2.70;1.60;;;;;;;38.87;26.25;96487.02;107514;1271;78916;-76
2022/06/07 08:39:13;;;;;;;3.50;1.80;;;;;;;38.39;24.69;96480.64;107162;1276;35171;-76
2022/06/07 08:41:49;;;;;;;2.90;1.70;;;;;;;38.62;25.85;96475.99;107313;1271;56488;-76
2022/06/07 08:44:26;;;;;;;2.30;1.70;;;;;;;40.01;24.82;96473.55;107615;1271;33148;-77
2022/06/07 08:47:00;;;;;;;2.60;2.00;;;;;;;39.68;23.13;96473.00;107460;1271;62558;-77
2022/06/07 08:49:31;;;;;;;2.20;1.90;;;;;;;38.23;24.36;96470.02;106940;1272;613076;-77
2022/06/07 08:52:14;;;;;;;2.00;1.90;;;;;;;37.03;25.44;96462.36;107429;1271;85871;-76
2022/06/07 08:54:46;;;;;;;2.50;2.30;;;;;;;35.40;27.19;96454.50;107475;1271;50101;-76
2022/06/07 08:57:23;;;;;;;2.60;2.40;;;;;;;33.35;28.82;96459.42;107439;1271;62981;-77
2022/06/07 09:00:01;;;;;;;2.70;2.50;;;;;;;31.46;31.21;96449.06;107481;1271;41306;-76
2022/06/07 09:02:59;;;;;;;3.00;2.50;;;;;;;30.53;33.16;96446.77;107444;1271;60870;-76
2022/06/07 09:05:30;;;;;;;2.80;2.60;;;;;;;30.91;34.21;96443.70;107492;1272;46440;-76
2022/06/07 09:08:07;;;;;;;4.70;3.10;;;;;;;31.24;33.48;96441.55;107484;1271;38371;-76
2022/06/07 09:13:29;;;;;;;3.20;2.90;;;;;;;30.18;34.77;96436.68;107517;1271;33881;-76
2022/06/07 09:16:01;;;;;;;3.50;3.20;;;;;;;29.46;35.43;96432.79;107410;1271;66329;-76
2022/06/07 09:18:33;;;;;;;3.70;3.00;;;;;;;29.27;36.95;96437.42;107475;1271;41462;-76
2022/06/07 09:21:11;;;;;;;3.70;3.40;;;;;;;29.68;36.69;96435.71;107480;1271;57111;-76
2022/06/07 09:23:46;;;;;;;4.50;3.50;;;;;;;29.87;36.71;96437.29;107491;1271;43406;-76
2022/06/07 09:26:27;;;;;;;4.20;3.80;;;;;;;30.09;36.53;96432.42;107573;1271;31890;-76
2022/06/07 09:29:13;;;;;;;3.70;3.30;;;;;;;30.26;36.94;96429.31;107493;1270;37504;-76
2022/06/07 09:31:46;;;;;;;5.40;3.60;;;;;;;30.57;36.57;96428.20;107509;1271;55238;-76
2022/06/07 09:34:28;;;;;;;4.10;3.50;;;;;;;30.85;36.90;96427.48;107547;1271;48178;-76
2022/06/07 09:37:04;;;;;;;4.00;3.50;;;;;;;30.84;36.07;96419.02;107489;1271;34660;-76
2022/06/07 09:39:39;;;;;;;5.60;3.60;;;;;;;30.14;36.30;96417.19;107461;1271;55208;-76
2022/06/07 09:42:18;;;;;;;4.20;3.60;;;;;;;29.88;36.31;96418.76;107468;1270;36379;-76
2022/06/07 09:45:03;;;;;;;4.40;3.50;;;;;;;29.51;36.96;96410.98;107504;1271;78522;-76
2022/06/07 09:47:34;;;;;;;4.10;3.70;;;;;;;29.53;36.73;96409.16;107493;1271;38718;-76
2022/06/07 09:50:19;;;;;;;4.00;3.70;;;;;;;29.13;37.32;96412.65;107337;1271;72029;-76
2022/06/07 09:52:54;;;;;;;4.00;3.70;;;;;;;28.58;38.34;96400.91;107654;1271;33690;-76
2022/06/07 09:55:40;;;;;;;4.00;3.70;;;;;;;28.49;39.34;96400.98;107496;1271;56541;-76
2022/06/07 09:58:27;;;;;;;3.90;3.40;;;;;;;28.70;39.70;96402.00;107389;1271;54715;-76
2022/06/07 10:01:05;;;;;;;4.00;3.70;;;;;;;29.23;38.95;96394.85;107381;1271;75269;-76
2022/06/07 10:03:47;;;;;;;3.70;3.30;;;;;;;29.35;39.02;96387.79;107414;1271;32836;-76
2022/06/07 10:06:26;;;;;;;3.80;3.50;;;;;;;29.36;38.40;96384.04;107507;1271;83604;-76
2022/06/07 10:09:16;;;;;;;4.50;4.00;;;;;;;29.23;38.70;96386.05;107482;1271;46279;-76
2022/06/07 10:11:59;;;;;;;3.60;3.30;;;;;;;29.09;38.89;96385.55;107509;1270;58556;-76
2022/06/07 10:14:44;;;;;;;3.80;3.50;;;;;;;29.28;39.53;96386.85;107511;1270;42008;-76
2022/06/07 10:17:41;;;;;;;4.90;3.60;;;;;;;29.79;38.87;96384.27;107403;1271;62221;-76
2022/06/07 10:20:23;;;;;;;4.20;3.70;;;;;;;29.60;37.83;96380.90;107515;1270;37864;-76
2022/06/07 10:23:30;;;;;;;4.70;4.10;;;;;;;28.89;38.27;96381.89;107380;1271;50716;-76
2022/06/07 10:26:17;;;;;;;4.20;3.80;;;;;;;28.43;38.52;96379.73;107437;1270;42926;-77
2022/06/07 10:29:04;;;;;;;4.60;4.10;;;;;;;28.15;39.66;96377.16;107552;1271;63229;-77
2022/06/07 10:31:44;;;;;;;5.60;3.90;;;;;;;28.59;40.28;96369.65;107555;1270;38903;-77
2022/06/07 10:34:27;;;;;;;4.90;3.80;;;;;;;29.16;40.19;96361.23;107422;1270;60228;-76
2022/06/07 10:37:08;;;;;;;5.20;4.10;;;;;;;29.45;38.57;96356.64;107501;1270;39514;-76
2022/06/07 10:39:51;;;;;;;4.50;4.10;;;;;;;29.09;38.81;96358.41;107394;1270;85477;-76
2022/06/07 10:42:36;;;;;;;4.60;4.10;;;;;;;28.35;39.22;96362.40;107552;1270;44063;-76
2022/06/07 10:45:16;;;;;;;3.90;3.60;;;;;;;27.35;40.86;96362.06;107477;1270;102021;-76
2022/06/07 10:47:56;;;;;;;4.80;4.30;;;;;;;26.63;42.45;96355.54;107484;1270;74843;-76
2022/06/07 10:50:33;;;;;;;4.30;4.00;;;;;;;26.29;42.92;96357.36;107550;1270;33464;-76
2022/06/07 10:53:10;;;;;;;5.20;4.30;;;;;;;26.20;43.30;96353.77;107497;1270;73847;-76
2022/06/07 10:55:49;;;;;;;4.70;4.30;;;;;;;26.03;43.38;96350.47;107518;1270;44903;-76
2022/06/07 10:58:33;;;;;;;5.50;4.60;;;;;;;26.11;43.72;96347.63;107396;1270;100145;-76
2022/06/07 11:01:14;;;;;;;5.80;4.50;;;;;;;26.47;44.19;96342.86;107458;1270;35589;-76
2022/06/07 11:04:06;;;;;;;5.20;4.60;;;;;;;27.20;43.70;96339.63;107327;1271;101507;-76
2022/06/07 11:09:39;;;;;;;5.30;4.80;;;;;;;28.16;41.91;96335.96;107388;1270;54139;-76
2022/06/07 11:12:17;;;;;;;6.00;4.60;;;;;;;28.12;42.89;96334.83;107464;1270;31799;-76
2022/06/07 11:15:07;;;;;;;5.40;5.00;;;;;;;28.41;42.39;96332.39;107463;1270;58416;-76
2022/06/07 11:17:44;;;;;;;7.00;5.20;;;;;;;28.52;42.20;96332.94;107462;1271;42749;-76
2022/06/07 11:20:21;;;;;;;6.80;5.20;;;;;;;28.86;42.01;96328.75;107418;1270;57341;-76
2022/06/07 11:23:13;;;;;;;5.80;5.20;;;;;;;28.93;40.56;96328.78;107484;1270;43864;-76
2022/06/07 11:25:59;;;;;;;6.50;4.80;;;;;;;28.33;40.75;96322.77;107306;1271;150224;-76
2022/06/07 11:28:33;;;;;;;6.00;5.40;;;;;;;28.13;41.20;96320.11;107492;1270;33857;-76
2022/06/07 11:31:23;;;;;;;4.80;4.30;;;;;;;28.11;42.19;96317.39;107398;1270;84369;-76
2022/06/07 11:34:14;;;;;;;4.30;3.90;;;;;;;28.09;42.29;96312.25;107352;1269;76097;-76
2022/06/07 11:36:47;;;;;;;7.50;4.70;;;;;;;28.06;41.91;96312.82;107510;1270;64901;-76
2022/06/07 11:39:51;;;;;;;5.60;3.70;;;;;;;27.80;42.76;96312.05;107525;1270;30617;-76
2022/06/07 11:42:33;;;;;;;4.00;3.60;;;;;;;27.77;42.64;96313.23;107575;1270;38203;-76
2022/06/07 11:45:21;;;;;;;5.70;4.20;;;;;;;27.74;42.55;96314.95;107505;1270;66222;-76
2022/06/07 11:48:18;;;;;;;4.60;4.20;;;;;;;27.70;42.72;96303.99;107560;1270;34169;-77
2022/06/07 11:50:59;;;;;;;4.90;4.40;;;;;;;27.43;42.95;96305.58;107473;1270;71703;-76
2022/06/07 11:53:35;;;;;;;4.60;4.20;;;;;;;27.27;43.22;96302.74;107477;1270;35520;-76
2022/06/07 11:56:40;;;;;;;4.80;4.40;;;;;;;27.20;43.42;96295.46;107400;1270;69151;-76
2022/06/07 11:59:35;;;;;;;4.40;4.00;;;;;;;26.97;43.88;96296.69;107473;1270;34435;-76
2022/06/07 12:02:28;;;;;;;4.20;3.90;;;;;;;26.82;44.09;96297.48;107456;1270;56970;-76
2022/06/07 12:05:26;;;;;;;4.10;3.70;;;;;;;26.64;44.31;96295.88;107346;1270;106960;-76
2022/06/07 12:08:01;;;;;;;5.30;3.90;;;;;;;26.49;44.56;96292.94;107472;1270;42254;-76
2022/06/07 12:10:36;;;;;;;4.60;4.00;;;;;;;26.35;44.58;96296.10;107355;1270;137293;-76
2022/06/07 12:13:16;;;;;;;3.90;3.40;;;;;;;26.28;45.37;96291.89;107465;1270;54363;-75
2022/06/07 12:15:51;;;;;;;4.80;3.90;;;;;;;26.21;45.05;96287.70;107573;1270;34005;-76
2022/06/07 12:18:26;;;;;;;4.90;3.90;;;;;;;26.05;45.35;96285.81;107327;1270;134877;-76
2022/06/07 12:21:01;;;;;;;5.40;4.10;;;;;;;25.89;45.56;96283.77;107500;1270;35675;-76
2022/06/07 12:23:37;;;;;;;4.50;4.00;;;;;;;25.82;45.68;96276.55;107384;1270;64736;-76